sensor_id;sensor_type;location;lat;lon;timestamp;P1;P2;P0
46681;PMS5003;34101;53.430;-2.224;2022-12-07T00:00:16;34;31;
46681;PMS5003;34101;53.430;-2.224;2022-12-07T00:02:44;31;30;
46681;PMS5003;34101;53.430;-2.224;2022-12-07T00:05:11;31;31;
46681;PMS5003;34101;53.430;-2.224;2022-12-07T00:07:38;38;34;
46681;PMS5003;34101;53.430;-2.224;2022-12-07T00:10:05;35;33;
46681;PMS5003;34101;53.430;-2.224;2022-12-07T00:12:33;34;31;
46681;PMS5003;34101;53.430;-2.224;2022-12-07T00:15:01;37;33;
46681;PMS5003;34101;53.430;-2.224;2022-12-07T00:17:28;33;31;
46681;PMS5003;34101;53.430;-2.224;2022-12-07T00:19:55;30;30;
46681;PMS5003;34101;53.430;-2.224;2022-12-07T00:22:23;39;34;
46681;PMS5003;34101;53.430;-2.224;2022-12-07T00:24:50;35;35;
46681;PMS5003;34101;53.430;-2.224;2022-12-07T00:27:18;30;30;
46681;PMS5003;34101;53.430;-2.224;2022-12-07T00:29:45;36;33;
46681;PMS5003;34101;53.430;-2.224;2022-12-07T00:32:14;28;28;
46681;PMS5003;34101;53.430;-2.224;2022-12-07T00:34:41;33;33;
46681;PMS5003;34101;53.430;-2.224;2022-12-07T00:37:08;31;30;
46681;PMS5003;34101;53.430;-2.224;2022-12-07T00:39:35;33;30;
46681;PMS5003;34101;53.430;-2.224;2022-12-07T00:42:02;31;31;
46681;PMS5003;34101;53.430;-2.224;2022-12-07T00:44:30;33;33;
46681;PMS5003;34101;53.430;-2.224;2022-12-07T00:46:57;29;28;
46681;PMS5003;34101;53.430;-2.224;2022-12-07T00:49:24;32;29;
46681;PMS5003;34101;53.430;-2.224;2022-12-07T00:51:51;30;29;
46681;PMS5003;34101;53.430;-2.224;2022-12-07T00:54:18;29;29;
46681;PMS5003;34101;53.430;-2.224;2022-12-07T00:56:45;32;30;
46681;PMS5003;34101;53.430;-2.224;2022-12-07T00:59:13;29;28;
46681;PMS5003;34101;53.430;-2.224;2022-12-07T01:01:40;30;28;
46681;PMS5003;34101;53.430;-2.224;2022-12-07T01:04:07;30;30;
46681;PMS5003;34101;53.430;-2.224;2022-12-07T01:06:34;34;26;
46681;PMS5003;34101;53.430;-2.224;2022-12-07T01:09:02;34;31;
46681;PMS5003;34101;53.430;-2.224;2022-12-07T01:11:30;29;28;
46681;PMS5003;34101;53.430;-2.224;2022-12-07T01:13:58;36;34;
46681;PMS5003;34101;53.430;-2.224;2022-12-07T01:16:26;34;32;
46681;PMS5003;34101;53.430;-2.224;2022-12-07T01:18:56;35;35;
46681;PMS5003;34101;53.430;-2.224;2022-12-07T01:21:25;29;28;
46681;PMS5003;34101;53.430;-2.224;2022-12-07T01:23:53;36;36;
46681;PMS5003;34101;53.430;-2.224;2022-12-07T01:26:21;38;33;
46681;PMS5003;34101;53.430;-2.224;2022-12-07T01:28:50;39;34;
46681;PMS5003;34101;53.430;-2.224;2022-12-07T01:31:19;31;28;
46681;PMS5003;34101;53.430;-2.224;2022-12-07T01:33:47;30;27;
46681;PMS5003;34101;53.430;-2.224;2022-12-07T01:36:17;35;33;
46681;PMS5003;34101;53.430;-2.224;2022-12-07T01:38:47;35;34;
46681;PMS5003;34101;53.430;-2.224;2022-12-07T01:41:15;33;30;
46681;PMS5003;34101;53.430;-2.224;2022-12-07T01:44:08;31;30;
46681;PMS5003;34101;53.430;-2.224;2022-12-07T01:46:40;34;30;
46681;PMS5003;34101;53.430;-2.224;2022-12-07T01:49:09;34;33;
46681;PMS5003;34101;53.430;-2.224;2022-12-07T01:51:40;35;31;
46681;PMS5003;34101;53.430;-2.224;2022-12-07T01:54:10;37;35;
46681;PMS5003;34101;53.430;-2.224;2022-12-07T01:56:39;37;31;
46681;PMS5003;34101;53.430;-2.224;2022-12-07T01:59:11;31;29;
46681;PMS5003;34101;53.430;-2.224;2022-12-07T02:01:40;36;31;
46681;PMS5003;34101;53.430;-2.224;2022-12-07T02:04:07;34;32;
46681;PMS5003;34101;53.430;-2.224;2022-12-07T02:06:35;31;31;
46681;PMS5003;34101;53.430;-2.224;2022-12-07T02:09:03;32;30;
46681;PMS5003;34101;53.430;-2.224;2022-12-07T02:11:31;29;27;
46681;PMS5003;34101;53.430;-2.224;2022-12-07T02:13:58;38;35;
46681;PMS5003;34101;53.430;-2.224;2022-12-07T02:16:27;32;28;
46681;PMS5003;34101;53.430;-2.224;2022-12-07T02:23:18;35;32;
46681;PMS5003;34101;53.430;-2.224;2022-12-07T02:26:02;39;34;
46681;PMS5003;34101;53.430;-2.224;2022-12-07T02:29:09;32;32;
46681;PMS5003;34101;53.430;-2.224;2022-12-07T02:31:43;40;39;
46681;PMS5003;34101;53.430;-2.224;2022-12-07T02:34:17;37;33;
46681;PMS5003;34101;53.430;-2.224;2022-12-07T02:36:51;32;29;
46681;PMS5003;34101;53.430;-2.224;2022-12-07T02:39:25;32;28;
46681;PMS5003;34101;53.430;-2.224;2022-12-07T02:42:01;33;30;
46681;PMS5003;34101;53.430;-2.224;2022-12-07T02:44:34;30;28;
46681;PMS5003;34101;53.430;-2.224;2022-12-07T02:47:03;37;34;
46681;PMS5003;34101;53.430;-2.224;2022-12-07T02:49:35;37;36;
46681;PMS5003;34101;53.430;-2.224;2022-12-07T02:52:04;34;31;
46681;PMS5003;34101;53.430;-2.224;2022-12-07T02:54:32;31;28;
46681;PMS5003;34101;53.430;-2.224;2022-12-07T02:57:00;31;28;
46681;PMS5003;34101;53.430;-2.224;2022-12-07T02:59:38;33;30;
46681;PMS5003;34101;53.430;-2.224;2022-12-07T03:02:17;37;37;
46681;PMS5003;34101;53.430;-2.224;2022-12-07T03:04:52;26;25;
46681;PMS5003;34101;53.430;-2.224;2022-12-07T03:07:32;32;31;
46681;PMS5003;34101;53.430;-2.224;2022-12-07T03:10:07;33;33;
46681;PMS5003;34101;53.430;-2.224;2022-12-07T03:12:56;36;32;
46681;PMS5003;34101;53.430;-2.224;2022-12-07T03:15:30;41;37;
46681;PMS5003;34101;53.430;-2.224;2022-12-07T03:18:02;40;38;
46681;PMS5003;34101;53.430;-2.224;2022-12-07T03:20:31;33;31;
46681;PMS5003;34101;53.430;-2.224;2022-12-07T03:23:02;38;35;
46681;PMS5003;34101;53.430;-2.224;2022-12-07T03:25:33;37;32;
46681;PMS5003;34101;53.430;-2.224;2022-12-07T03:28:05;33;33;
46681;PMS5003;34101;53.430;-2.224;2022-12-07T03:30:35;30;30;
46681;PMS5003;34101;53.430;-2.224;2022-12-07T03:33:09;33;26;
46681;PMS5003;34101;53.430;-2.224;2022-12-07T03:35:41;42;32;
46681;PMS5003;34101;53.430;-2.224;2022-12-07T03:38:13;33;28;
46681;PMS5003;34101;53.430;-2.224;2022-12-07T03:40:47;30;25;
46681;PMS5003;34101;53.430;-2.224;2022-12-07T03:43:19;38;32;
46681;PMS5003;34101;53.430;-2.224;2022-12-07T03:45:50;31;29;
46681;PMS5003;34101;53.430;-2.224;2022-12-07T03:48:28;38;33;
46681;PMS5003;34101;53.430;-2.224;2022-12-07T03:51:04;35;32;
46681;PMS5003;34101;53.430;-2.224;2022-12-07T03:53:40;34;33;
46681;PMS5003;34101;53.430;-2.224;2022-12-07T03:56:11;37;29;
46681;PMS5003;34101;53.430;-2.224;2022-12-07T03:58:39;33;32;
46681;PMS5003;34101;53.430;-2.224;2022-12-07T04:01:07;27;26;
46681;PMS5003;34101;53.430;-2.224;2022-12-07T04:03:35;33;33;
46681;PMS5003;34101;53.430;-2.224;2022-12-07T04:06:02;31;27;
46681;PMS5003;34101;53.430;-2.224;2022-12-07T04:08:29;29;27;
46681;PMS5003;34101;53.430;-2.224;2022-12-07T04:10:56;32;30;
46681;PMS5003;34101;53.430;-2.224;2022-12-07T04:13:24;30;29;
46681;PMS5003;34101;53.430;-2.224;2022-12-07T04:15:51;31;27;
46681;PMS5003;34101;53.430;-2.224;2022-12-07T04:18:18;36;36;
46681;PMS5003;34101;53.430;-2.224;2022-12-07T04:20:45;37;30;
46681;PMS5003;34101;53.430;-2.224;2022-12-07T04:23:13;35;35;
46681;PMS5003;34101;53.430;-2.224;2022-12-07T04:25:40;27;26;
46681;PMS5003;34101;53.430;-2.224;2022-12-07T04:28:07;36;35;
46681;PMS5003;34101;53.430;-2.224;2022-12-07T04:30:35;35;32;
46681;PMS5003;34101;53.430;-2.224;2022-12-07T04:33:02;35;32;
46681;PMS5003;34101;53.430;-2.224;2022-12-07T04:35:29;30;28;
46681;PMS5003;34101;53.430;-2.224;2022-12-07T04:37:57;34;32;
46681;PMS5003;34101;53.430;-2.224;2022-12-07T04:40:24;35;32;
46681;PMS5003;34101;53.430;-2.224;2022-12-07T04:42:52;31;27;
46681;PMS5003;34101;53.430;-2.224;2022-12-07T04:45:19;37;35;
46681;PMS5003;34101;53.430;-2.224;2022-12-07T04:47:47;35;34;
46681;PMS5003;34101;53.430;-2.224;2022-12-07T04:50:14;41;36;
46681;PMS5003;34101;53.430;-2.224;2022-12-07T04:52:41;29;29;
46681;PMS5003;34101;53.430;-2.224;2022-12-07T04:55:09;34;34;
46681;PMS5003;34101;53.430;-2.224;2022-12-07T04:57:36;32;29;
46681;PMS5003;34101;53.430;-2.224;2022-12-07T05:00:03;30;30;
46681;PMS5003;34101;53.430;-2.224;2022-12-07T05:02:31;39;35;
46681;PMS5003;34101;53.430;-2.224;2022-12-07T05:04:58;29;29;
46681;PMS5003;34101;53.430;-2.224;2022-12-07T05:07:25;34;30;
46681;PMS5003;34101;53.430;-2.224;2022-12-07T05:09:52;35;35;
46681;PMS5003;34101;53.430;-2.224;2022-12-07T05:12:20;32;30;
46681;PMS5003;34101;53.430;-2.224;2022-12-07T05:14:47;38;38;
46681;PMS5003;34101;53.430;-2.224;2022-12-07T05:17:14;37;35;
46681;PMS5003;34101;53.430;-2.224;2022-12-07T05:19:41;29;29;
46681;PMS5003;34101;53.430;-2.224;2022-12-07T05:22:08;30;29;
46681;PMS5003;34101;53.430;-2.224;2022-12-07T05:24:35;35;31;
46681;PMS5003;34101;53.430;-2.224;2022-12-07T05:27:02;34;32;
46681;PMS5003;34101;53.430;-2.224;2022-12-07T05:29:30;30;30;
46681;PMS5003;34101;53.430;-2.224;2022-12-07T05:31:57;29;29;
46681;PMS5003;34101;53.430;-2.224;2022-12-07T05:34:24;37;32;
46681;PMS5003;34101;53.430;-2.224;2022-12-07T05:36:52;37;34;
46681;PMS5003;34101;53.430;-2.224;2022-12-07T05:39:19;34;33;
46681;PMS5003;34101;53.430;-2.224;2022-12-07T05:41:47;34;34;
46681;PMS5003;34101;53.430;-2.224;2022-12-07T05:44:14;35;30;
46681;PMS5003;34101;53.430;-2.224;2022-12-07T05:46:41;40;35;
46681;PMS5003;34101;53.430;-2.224;2022-12-07T05:49:07;36;36;
46681;PMS5003;34101;53.430;-2.224;2022-12-07T05:51:35;37;35;
46681;PMS5003;34101;53.430;-2.224;2022-12-07T05:54:02;31;31;
46681;PMS5003;34101;53.430;-2.224;2022-12-07T05:56:30;32;30;
46681;PMS5003;34101;53.430;-2.224;2022-12-07T05:58:57;30;28;
46681;PMS5003;34101;53.430;-2.224;2022-12-07T06:01:24;35;31;
46681;PMS5003;34101;53.430;-2.224;2022-12-07T06:03:52;39;31;
46681;PMS5003;34101;53.430;-2.224;2022-12-07T06:06:19;36;34;
46681;PMS5003;34101;53.430;-2.224;2022-12-07T06:08:46;37;34;
46681;PMS5003;34101;53.430;-2.224;2022-12-07T06:11:12;28;27;
46681;PMS5003;34101;53.430;-2.224;2022-12-07T06:13:40;33;30;
46681;PMS5003;34101;53.430;-2.224;2022-12-07T06:16:07;35;34;
46681;PMS5003;34101;53.430;-2.224;2022-12-07T06:18:34;35;34;
46681;PMS5003;34101;53.430;-2.224;2022-12-07T06:21:02;31;31;
46681;PMS5003;34101;53.430;-2.224;2022-12-07T06:23:29;36;34;
46681;PMS5003;34101;53.430;-2.224;2022-12-07T06:25:56;40;36;
46681;PMS5003;34101;53.430;-2.224;2022-12-07T06:28:24;34;31;
46681;PMS5003;34101;53.430;-2.224;2022-12-07T06:30:56;36;33;
46681;PMS5003;34101;53.430;-2.224;2022-12-07T06:33:23;43;39;
46681;PMS5003;34101;53.430;-2.224;2022-12-07T06:35:51;45;36;
46681;PMS5003;34101;53.430;-2.224;2022-12-07T06:38:18;43;40;
46681;PMS5003;34101;53.430;-2.224;2022-12-07T06:40:45;41;37;
46681;PMS5003;34101;53.430;-2.224;2022-12-07T06:43:13;40;39;
46681;PMS5003;34101;53.430;-2.224;2022-12-07T06:45:41;34;31;
46681;PMS5003;34101;53.430;-2.224;2022-12-07T06:48:08;43;40;
46681;PMS5003;34101;53.430;-2.224;2022-12-07T06:50:36;34;34;
46681;PMS5003;34101;53.430;-2.224;2022-12-07T06:53:03;41;36;
46681;PMS5003;34101;53.430;-2.224;2022-12-07T06:55:30;40;32;
46681;PMS5003;34101;53.430;-2.224;2022-12-07T06:57:58;37;34;
46681;PMS5003;34101;53.430;-2.224;2022-12-07T07:00:25;42;37;
46681;PMS5003;34101;53.430;-2.224;2022-12-07T07:02:53;41;37;
46681;PMS5003;34101;53.430;-2.224;2022-12-07T07:05:20;37;35;
46681;PMS5003;34101;53.430;-2.224;2022-12-07T07:07:48;39;37;
46681;PMS5003;34101;53.430;-2.224;2022-12-07T07:10:15;40;40;
46681;PMS5003;34101;53.430;-2.224;2022-12-07T07:12:43;40;36;
46681;PMS5003;34101;53.430;-2.224;2022-12-07T07:15:10;46;37;
46681;PMS5003;34101;53.430;-2.224;2022-12-07T07:17:37;43;40;
46681;PMS5003;34101;53.430;-2.224;2022-12-07T07:20:05;45;41;
46681;PMS5003;34101;53.430;-2.224;2022-12-07T07:22:33;42;39;
46681;PMS5003;34101;53.430;-2.224;2022-12-07T07:25:01;46;41;
46681;PMS5003;34101;53.430;-2.224;2022-12-07T07:27:29;54;50;
46681;PMS5003;34101;53.430;-2.224;2022-12-07T07:29:56;56;48;
46681;PMS5003;34101;53.430;-2.224;2022-12-07T07:32:23;56;48;
46681;PMS5003;34101;53.430;-2.224;2022-12-07T07:34:51;47;43;
46681;PMS5003;34101;53.430;-2.224;2022-12-07T07:37:18;46;43;
46681;PMS5003;34101;53.430;-2.224;2022-12-07T07:39:46;58;57;
46681;PMS5003;34101;53.430;-2.224;2022-12-07T07:42:13;53;47;
46681;PMS5003;34101;53.430;-2.224;2022-12-07T07:44:40;42;40;
46681;PMS5003;34101;53.430;-2.224;2022-12-07T07:47:08;35;33;
46681;PMS5003;34101;53.430;-2.224;2022-12-07T07:49:35;34;32;
46681;PMS5003;34101;53.430;-2.224;2022-12-07T07:52:03;41;36;
46681;PMS5003;34101;53.430;-2.224;2022-12-07T07:54:32;40;40;
46681;PMS5003;34101;53.430;-2.224;2022-12-07T07:57:00;42;38;
46681;PMS5003;34101;53.430;-2.224;2022-12-07T07:59:27;42;37;
46681;PMS5003;34101;53.430;-2.224;2022-12-07T08:01:54;36;36;
46681;PMS5003;34101;53.430;-2.224;2022-12-07T08:04:21;41;38;
46681;PMS5003;34101;53.430;-2.224;2022-12-07T08:06:49;53;46;
46681;PMS5003;34101;53.430;-2.224;2022-12-07T08:09:16;41;33;
46681;PMS5003;34101;53.430;-2.224;2022-12-07T08:11:43;37;36;
46681;PMS5003;34101;53.430;-2.224;2022-12-07T08:14:10;31;30;
46681;PMS5003;34101;53.430;-2.224;2022-12-07T08:16:38;41;38;
46681;PMS5003;34101;53.430;-2.224;2022-12-07T08:19:06;43;41;
46681;PMS5003;34101;53.430;-2.224;2022-12-07T08:21:33;50;47;
46681;PMS5003;34101;53.430;-2.224;2022-12-07T08:24:01;49;44;
46681;PMS5003;34101;53.430;-2.224;2022-12-07T08:26:29;52;48;
46681;PMS5003;34101;53.430;-2.224;2022-12-07T08:28:56;44;41;
46681;PMS5003;34101;53.430;-2.224;2022-12-07T08:31:23;38;36;
46681;PMS5003;34101;53.430;-2.224;2022-12-07T08:33:51;37;35;
46681;PMS5003;34101;53.430;-2.224;2022-12-07T08:36:18;46;42;
46681;PMS5003;34101;53.430;-2.224;2022-12-07T08:38:45;43;39;
46681;PMS5003;34101;53.430;-2.224;2022-12-07T08:41:12;47;43;
46681;PMS5003;34101;53.430;-2.224;2022-12-07T08:43:39;58;53;
46681;PMS5003;34101;53.430;-2.224;2022-12-07T08:46:09;47;46;
46681;PMS5003;34101;53.430;-2.224;2022-12-07T08:48:41;49;42;
46681;PMS5003;34101;53.430;-2.224;2022-12-07T08:51:12;52;47;
46681;PMS5003;34101;53.430;-2.224;2022-12-07T08:53:40;46;41;
46681;PMS5003;34101;53.430;-2.224;2022-12-07T08:56:09;44;41;
46681;PMS5003;34101;53.430;-2.224;2022-12-07T08:58:36;54;47;
46681;PMS5003;34101;53.430;-2.224;2022-12-07T09:01:05;43;41;
46681;PMS5003;34101;53.430;-2.224;2022-12-07T09:03:33;47;44;
46681;PMS5003;34101;53.430;-2.224;2022-12-07T09:06:00;43;43;
46681;PMS5003;34101;53.430;-2.224;2022-12-07T09:08:30;35;32;
46681;PMS5003;34101;53.430;-2.224;2022-12-07T09:11:01;42;40;
46681;PMS5003;34101;53.430;-2.224;2022-12-07T09:13:29;43;40;
46681;PMS5003;34101;53.430;-2.224;2022-12-07T09:15:56;50;42;
46681;PMS5003;34101;53.430;-2.224;2022-12-07T09:18:23;45;39;
46681;PMS5003;34101;53.430;-2.224;2022-12-07T09:20:50;38;35;
46681;PMS5003;34101;53.430;-2.224;2022-12-07T09:23:18;44;43;
46681;PMS5003;34101;53.430;-2.224;2022-12-07T09:25:45;50;46;
46681;PMS5003;34101;53.430;-2.224;2022-12-07T09:28:11;39;38;
46681;PMS5003;34101;53.430;-2.224;2022-12-07T09:30:39;42;37;
46681;PMS5003;34101;53.430;-2.224;2022-12-07T09:33:12;42;42;
46681;PMS5003;34101;53.430;-2.224;2022-12-07T09:35:43;39;34;
46681;PMS5003;34101;53.430;-2.224;2022-12-07T09:38:11;43;38;
46681;PMS5003;34101;53.430;-2.224;2022-12-07T09:40:38;37;33;
46681;PMS5003;34101;53.430;-2.224;2022-12-07T09:43:10;41;39;
46681;PMS5003;34101;53.430;-2.224;2022-12-07T09:45:40;34;34;
46681;PMS5003;34101;53.430;-2.224;2022-12-07T09:48:09;41;38;
46681;PMS5003;34101;53.430;-2.224;2022-12-07T09:50:43;43;41;
46681;PMS5003;34101;53.430;-2.224;2022-12-07T09:53:13;36;34;
46681;PMS5003;34101;53.430;-2.224;2022-12-07T09:55:44;38;37;
46681;PMS5003;34101;53.430;-2.224;2022-12-07T09:58:12;42;38;
46681;PMS5003;34101;53.430;-2.224;2022-12-07T10:00:46;37;35;
46681;PMS5003;34101;53.430;-2.224;2022-12-07T10:03:13;42;39;
46681;PMS5003;34101;53.430;-2.224;2022-12-07T10:05:42;42;39;
46681;PMS5003;34101;53.430;-2.224;2022-12-07T10:08:12;47;42;
46681;PMS5003;34101;53.430;-2.224;2022-12-07T10:10:40;46;44;
46681;PMS5003;34101;53.430;-2.224;2022-12-07T10:13:08;46;44;
46681;PMS5003;34101;53.430;-2.224;2022-12-07T10:15:41;41;37;
46681;PMS5003;34101;53.430;-2.224;2022-12-07T10:18:18;46;43;
46681;PMS5003;34101;53.430;-2.224;2022-12-07T10:20:48;66;63;
46681;PMS5003;34101;53.430;-2.224;2022-12-07T10:23:16;58;56;
46681;PMS5003;34101;53.430;-2.224;2022-12-07T10:25:45;56;55;
46681;PMS5003;34101;53.430;-2.224;2022-12-07T10:28:13;50;48;
46681;PMS5003;34101;53.430;-2.224;2022-12-07T10:30:51;52;45;
46681;PMS5003;34101;53.430;-2.224;2022-12-07T10:33:45;56;51;
46681;PMS5003;34101;53.430;-2.224;2022-12-07T10:36:17;48;45;
46681;PMS5003;34101;53.430;-2.224;2022-12-07T10:38:48;40;40;
46681;PMS5003;34101;53.430;-2.224;2022-12-07T10:41:17;40;35;
46681;PMS5003;34101;53.430;-2.224;2022-12-07T10:43:49;43;37;
46681;PMS5003;34101;53.430;-2.224;2022-12-07T10:46:31;43;39;
46681;PMS5003;34101;53.430;-2.224;2022-12-07T10:49:17;39;39;
46681;PMS5003;34101;53.430;-2.224;2022-12-07T10:52:00;37;37;
46681;PMS5003;34101;53.430;-2.224;2022-12-07T10:54:38;35;35;
46681;PMS5003;34101;53.430;-2.224;2022-12-07T10:57:16;36;36;
46681;PMS5003;34101;53.430;-2.224;2022-12-07T10:59:59;43;39;
46681;PMS5003;34101;53.430;-2.224;2022-12-07T11:02:36;41;39;
46681;PMS5003;34101;53.430;-2.224;2022-12-07T11:05:21;34;33;
46681;PMS5003;34101;53.430;-2.224;2022-12-07T11:07:58;37;36;
46681;PMS5003;34101;53.430;-2.224;2022-12-07T11:10:32;42;40;
46681;PMS5003;34101;53.430;-2.224;2022-12-07T11:13:12;41;36;
46681;PMS5003;34101;53.430;-2.224;2022-12-07T11:15:53;39;39;
46681;PMS5003;34101;53.430;-2.224;2022-12-07T11:18:31;27;27;
46681;PMS5003;34101;53.430;-2.224;2022-12-07T11:21:07;36;32;
46681;PMS5003;34101;53.430;-2.224;2022-12-07T11:23:45;42;36;
46681;PMS5003;34101;53.430;-2.224;2022-12-07T11:26:41;42;41;
46681;PMS5003;34101;53.430;-2.224;2022-12-07T11:29:39;46;46;
46681;PMS5003;34101;53.430;-2.224;2022-12-07T11:32:18;48;43;
46681;PMS5003;34101;53.430;-2.224;2022-12-07T11:34:59;47;44;
46681;PMS5003;34101;53.430;-2.224;2022-12-07T11:37:35;50;47;
46681;PMS5003;34101;53.430;-2.224;2022-12-07T11:40:04;44;41;
46681;PMS5003;34101;53.430;-2.224;2022-12-07T11:42:42;44;40;
46681;PMS5003;34101;53.430;-2.224;2022-12-07T11:45:17;41;39;
46681;PMS5003;34101;53.430;-2.224;2022-12-07T11:47:51;40;39;
46681;PMS5003;34101;53.430;-2.224;2022-12-07T11:50:52;44;44;
46681;PMS5003;34101;53.430;-2.224;2022-12-07T11:53:45;38;37;
46681;PMS5003;34101;53.430;-2.224;2022-12-07T11:56:21;39;36;
46681;PMS5003;34101;53.430;-2.224;2022-12-07T11:58:57;39;37;
46681;PMS5003;34101;53.430;-2.224;2022-12-07T12:01:35;46;41;
46681;PMS5003;34101;53.430;-2.224;2022-12-07T12:04:14;43;39;
46681;PMS5003;34101;53.430;-2.224;2022-12-07T12:06:51;49;44;
46681;PMS5003;34101;53.430;-2.224;2022-12-07T12:09:19;43;41;
46681;PMS5003;34101;53.430;-2.224;2022-12-07T12:11:58;37;35;
46681;PMS5003;34101;53.430;-2.224;2022-12-07T12:14:41;43;41;
46681;PMS5003;34101;53.430;-2.224;2022-12-07T12:17:22;37;36;
46681;PMS5003;34101;53.430;-2.224;2022-12-07T12:20:14;36;34;
46681;PMS5003;34101;53.430;-2.224;2022-12-07T12:22:48;44;42;
46681;PMS5003;34101;53.430;-2.224;2022-12-07T12:25:20;39;33;
46681;PMS5003;34101;53.430;-2.224;2022-12-07T12:27:50;34;32;
46681;PMS5003;34101;53.430;-2.224;2022-12-07T12:30:25;41;40;
46681;PMS5003;34101;53.430;-2.224;2022-12-07T12:33:01;36;36;
46681;PMS5003;34101;53.430;-2.224;2022-12-07T12:35:33;37;35;
46681;PMS5003;34101;53.430;-2.224;2022-12-07T12:38:21;38;37;
46681;PMS5003;34101;53.430;-2.224;2022-12-07T12:40:54;37;33;
46681;PMS5003;34101;53.430;-2.224;2022-12-07T12:43:55;48;40;
46681;PMS5003;34101;53.430;-2.224;2022-12-07T12:46:46;35;35;
46681;PMS5003;34101;53.430;-2.224;2022-12-07T12:49:36;35;34;
46681;PMS5003;34101;53.430;-2.224;2022-12-07T12:54:19;38;36;
46681;PMS5003;34101;53.430;-2.224;2022-12-07T12:56:48;36;34;
46681;PMS5003;34101;53.430;-2.224;2022-12-07T12:59:23;29;28;
46681;PMS5003;34101;53.430;-2.224;2022-12-07T13:01:54;33;33;
46681;PMS5003;34101;53.430;-2.224;2022-12-07T13:04:49;42;39;
46681;PMS5003;34101;53.430;-2.224;2022-12-07T13:08:24;36;34;
46681;PMS5003;34101;53.430;-2.224;2022-12-07T13:10:51;41;38;
46681;PMS5003;34101;53.430;-2.224;2022-12-07T13:13:35;41;38;
46681;PMS5003;34101;53.430;-2.224;2022-12-07T13:16:36;45;40;
46681;PMS5003;34101;53.430;-2.224;2022-12-07T13:20:19;40;37;
46681;PMS5003;34101;53.430;-2.224;2022-12-07T13:23:09;38;37;
46681;PMS5003;34101;53.430;-2.224;2022-12-07T13:25:42;46;42;
46681;PMS5003;34101;53.430;-2.224;2022-12-07T13:28:16;41;36;
46681;PMS5003;34101;53.430;-2.224;2022-12-07T13:30:58;42;38;
46681;PMS5003;34101;53.430;-2.224;2022-12-07T13:33:34;40;37;
46681;PMS5003;34101;53.430;-2.224;2022-12-07T13:36:02;39;34;
46681;PMS5003;34101;53.430;-2.224;2022-12-07T13:38:32;26;25;
46681;PMS5003;34101;53.430;-2.224;2022-12-07T13:41:03;28;25;
46681;PMS5003;34101;53.430;-2.224;2022-12-07T13:43:46;24;24;
46681;PMS5003;34101;53.430;-2.224;2022-12-07T13:46:17;24;24;
46681;PMS5003;34101;53.430;-2.224;2022-12-07T13:48:50;27;26;
46681;PMS5003;34101;53.430;-2.224;2022-12-07T13:51:19;30;26;
46681;PMS5003;34101;53.430;-2.224;2022-12-07T13:53:48;27;23;
46681;PMS5003;34101;53.430;-2.224;2022-12-07T13:56:17;22;22;
46681;PMS5003;34101;53.430;-2.224;2022-12-07T13:58:47;17;17;
46681;PMS5003;34101;53.430;-2.224;2022-12-07T14:01:15;18;18;
46681;PMS5003;34101;53.430;-2.224;2022-12-07T14:03:43;20;20;
46681;PMS5003;34101;53.430;-2.224;2022-12-07T14:06:14;51;47;
46681;PMS5003;34101;53.430;-2.224;2022-12-07T14:08:46;23;20;
46681;PMS5003;34101;53.430;-2.224;2022-12-07T14:11:15;25;24;
46681;PMS5003;34101;53.430;-2.224;2022-12-07T14:13:50;23;18;
46681;PMS5003;34101;53.430;-2.224;2022-12-07T14:16:24;17;15;
46681;PMS5003;34101;53.430;-2.224;2022-12-07T14:18:53;20;17;
46681;PMS5003;34101;53.430;-2.224;2022-12-07T14:21:21;22;17;
46681;PMS5003;34101;53.430;-2.224;2022-12-07T14:24:23;18;16;
46681;PMS5003;34101;53.430;-2.224;2022-12-07T14:26:50;20;18;
46681;PMS5003;34101;53.430;-2.224;2022-12-07T14:29:20;16;16;
46681;PMS5003;34101;53.430;-2.224;2022-12-07T14:31:55;23;20;
46681;PMS5003;34101;53.430;-2.224;2022-12-07T14:34:24;25;24;
46681;PMS5003;34101;53.430;-2.224;2022-12-07T14:36:51;23;21;
46681;PMS5003;34101;53.430;-2.224;2022-12-07T14:39:18;13;13;
46681;PMS5003;34101;53.430;-2.224;2022-12-07T14:41:46;16;16;
46681;PMS5003;34101;53.430;-2.224;2022-12-07T14:44:13;18;16;
46681;PMS5003;34101;53.430;-2.224;2022-12-07T14:46:40;20;20;
46681;PMS5003;34101;53.430;-2.224;2022-12-07T14:49:08;20;17;
46681;PMS5003;34101;53.430;-2.224;2022-12-07T14:51:36;20;16;
46681;PMS5003;34101;53.430;-2.224;2022-12-07T14:54:05;17;17;
46681;PMS5003;34101;53.430;-2.224;2022-12-07T14:56:38;14;14;
46681;PMS5003;34101;53.430;-2.224;2022-12-07T14:59:05;17;16;
46681;PMS5003;34101;53.430;-2.224;2022-12-07T15:01:33;17;16;
46681;PMS5003;34101;53.430;-2.224;2022-12-07T15:04:01;16;14;
46681;PMS5003;34101;53.430;-2.224;2022-12-07T15:06:28;20;16;
46681;PMS5003;34101;53.430;-2.224;2022-12-07T15:08:55;12;12;
46681;PMS5003;34101;53.430;-2.224;2022-12-07T15:11:23;13;13;
46681;PMS5003;34101;53.430;-2.224;2022-12-07T15:13:50;15;14;
46681;PMS5003;34101;53.430;-2.224;2022-12-07T15:16:19;15;15;
46681;PMS5003;34101;53.430;-2.224;2022-12-07T15:18:47;16;14;
46681;PMS5003;34101;53.430;-2.224;2022-12-07T15:21:15;15;12;
46681;PMS5003;34101;53.430;-2.224;2022-12-07T15:23:42;11;11;
46681;PMS5003;34101;53.430;-2.224;2022-12-07T15:26:10;12;12;
46681;PMS5003;34101;53.430;-2.224;2022-12-07T15:28:37;13;13;
46681;PMS5003;34101;53.430;-2.224;2022-12-07T15:31:10;20;14;
46681;PMS5003;34101;53.430;-2.224;2022-12-07T15:33:38;13;13;
46681;PMS5003;34101;53.430;-2.224;2022-12-07T15:36:05;16;16;
46681;PMS5003;34101;53.430;-2.224;2022-12-07T15:38:33;13;11;
46681;PMS5003;34101;53.430;-2.224;2022-12-07T15:41:02;14;13;
46681;PMS5003;34101;53.430;-2.224;2022-12-07T15:43:29;15;15;
46681;PMS5003;34101;53.430;-2.224;2022-12-07T15:45:57;13;11;
46681;PMS5003;34101;53.430;-2.224;2022-12-07T15:48:24;12;11;
46681;PMS5003;34101;53.430;-2.224;2022-12-07T15:50:51;14;12;
46681;PMS5003;34101;53.430;-2.224;2022-12-07T15:53:19;11;11;
46681;PMS5003;34101;53.430;-2.224;2022-12-07T15:55:46;15;12;
46681;PMS5003;34101;53.430;-2.224;2022-12-07T15:58:13;18;15;
46681;PMS5003;34101;53.430;-2.224;2022-12-07T16:00:41;18;18;
46681;PMS5003;34101;53.430;-2.224;2022-12-07T16:03:08;18;18;
46681;PMS5003;34101;53.430;-2.224;2022-12-07T16:05:36;23;18;
46681;PMS5003;34101;53.430;-2.224;2022-12-07T16:08:04;17;15;
46681;PMS5003;34101;53.430;-2.224;2022-12-07T16:10:32;19;13;
46681;PMS5003;34101;53.430;-2.224;2022-12-07T16:12:59;17;15;
46681;PMS5003;34101;53.430;-2.224;2022-12-07T16:15:27;15;14;
46681;PMS5003;34101;53.430;-2.224;2022-12-07T16:17:54;21;15;
46681;PMS5003;34101;53.430;-2.224;2022-12-07T16:20:21;17;14;
46681;PMS5003;34101;53.430;-2.224;2022-12-07T16:22:51;19;17;
46681;PMS5003;34101;53.430;-2.224;2022-12-07T16:25:18;22;20;
46681;PMS5003;34101;53.430;-2.224;2022-12-07T16:27:45;35;32;
46681;PMS5003;34101;53.430;-2.224;2022-12-07T16:30:13;47;47;
46681;PMS5003;34101;53.430;-2.224;2022-12-07T16:32:40;32;32;